createdAt,value
2017-03-19T00:00:38.622Z,67.75
2017-03-19T00:01:38.654Z,68.23
2017-03-19T00:02:38.692Z,68.13
2017-03-19T00:03:39.026Z,67.46
2017-03-19T00:04:39.045Z,68.32
2017-03-19T00:05:39.073Z,67.75
2017-03-19T00:06:38.818Z,68.41
2017-03-19T00:07:38.861Z,68.32
2017-03-19T00:08:39.194Z,68.6
2017-03-19T00:09:39.223Z,68.79
2017-03-19T00:10:38.938Z,68.7
2017-03-19T00:11:38.971Z,68.89
2017-03-19T00:12:39.327Z,68.89
2017-03-19T00:13:39.359Z,68.6
2017-03-19T00:14:39.068Z,68.6
2017-03-19T00:15:39.104Z,68.6
2017-03-19T00:16:39.138Z,69.27
2017-03-19T00:17:39.487Z,68.51
2017-03-19T00:18:39.503Z,68.7
2017-03-19T00:19:39.552Z,68.89
2017-03-19T00:20:39.267Z,69.27
2017-03-19T00:21:39.601Z,69.27
2017-03-19T00:22:39.648Z,69.27
2017-03-19T00:23:39.376Z,69.08
2017-03-19T00:24:39.396Z,68.89
2017-03-19T00:25:39.442Z,69.08
2017-03-19T00:26:39.463Z,69.17
2017-03-19T00:27:39.795Z,69.65
2017-03-19T00:28:39.525Z,69.36
2017-03-19T00:29:39.880Z,69.46
2017-03-19T00:30:39.598Z,69.36
2017-03-19T00:31:39.623Z,69.84
2017-03-19T00:32:39.958Z,69.65
2017-03-19T00:33:40.012Z,69.84
2017-03-19T00:34:40.024Z,70.12
2017-03-19T00:35:39.769Z,69.84
2017-03-19T00:36:39.786Z,69.84
2017-03-19T00:37:40.122Z,69.74
2017-03-19T00:38:40.174Z,69.84
2017-03-19T00:39:39.884Z,69.46
2017-03-19T00:40:39.932Z,70.03
2017-03-19T00:41:39.952Z,69.93
2017-03-19T00:42:40.293Z,70.21
2017-03-19T00:43:40.031Z,70.5
2017-03-19T00:44:40.048Z,70.5
2017-03-19T00:45:40.082Z,70.69
2017-03-19T00:46:40.414Z,70.5
2017-03-19T00:47:40.467Z,70.5
2017-03-19T00:48:40.502Z,70.31
2017-03-19T00:49:40.213Z,70.21
2017-03-19T00:50:40.564Z,70.03
2017-03-19T00:51:40.279Z,70.21
2017-03-19T00:52:40.326Z,70.69
2017-03-19T00:53:40.665Z,70.59
2017-03-19T00:54:40.377Z,71.07
2017-03-19T00:55:40.732Z,71.07
2017-03-19T00:56:40.763Z,70.69
2017-03-19T00:57:40.488Z,71.07
2017-03-19T00:58:40.828Z,71.07
2017-03-19T00:59:40.864Z,71.26
2017-03-19T01:00:40.870Z,71.07
2017-03-19T01:01:40.617Z,70.88
2017-03-19T01:02:40.959Z,70.98
2017-03-19T01:03:40.685Z,70.98
2017-03-19T01:04:40.704Z,70.98
2017-03-19T01:05:40.750Z,70.88
2017-03-19T01:06:40.782Z,70.78
2017-03-19T01:07:41.103Z,70.69
2017-03-19T01:08:41.137Z,70.98
2017-03-19T01:09:41.167Z,71.17
2017-03-19T01:10:40.910Z,71.36
2017-03-19T01:11:40.928Z,71.36
2017-03-19T01:12:40.963Z,71.26
2017-03-19T01:13:40.994Z,71.45
2017-03-19T01:14:41.360Z,71.55
2017-03-19T01:15:41.404Z,71.36
2017-03-19T01:16:41.091Z,71.36
2017-03-19T01:17:41.445Z,71.26
2017-03-19T01:18:41.462Z,71.55
2017-03-19T01:19:41.189Z,71.64
2017-03-19T01:20:41.222Z,71.64
2017-03-19T01:21:41.271Z,71.73
2017-03-19T01:22:41.301Z,71.92
2017-03-19T01:23:41.642Z,71.73
2017-03-19T01:24:41.367Z,71.73
2017-03-19T01:25:41.690Z,71.83
2017-03-19T01:26:41.738Z,71.73
2017-03-19T01:27:41.466Z,71.83
2017-03-19T01:28:41.499Z,71.55
2017-03-19T01:29:41.515Z,71.45
2017-03-19T01:30:41.546Z,71.83
2017-03-19T01:31:41.580Z,71.73
2017-03-19T01:32:41.616Z,71.64
2017-03-19T01:33:41.647Z,71.73
2017-03-19T01:34:41.693Z,71.73
2017-03-19T01:35:41.712Z,71.73
2017-03-19T01:36:41.758Z,71.55
2017-03-19T01:37:41.792Z,72.02
2017-03-19T01:38:41.826Z,71.92
2017-03-19T01:39:41.842Z,71.73
2017-03-19T01:40:41.880Z,72.11
2017-03-19T01:41:41.922Z,71.73
2017-03-19T01:42:41.958Z,71.92
2017-03-19T01:43:42.279Z,71.83
2017-03-19T01:44:42.328Z,71.83
2017-03-19T01:45:42.367Z,71.73
2017-03-19T01:46:42.074Z,71.73
2017-03-19T01:47:42.427Z,71.64
2017-03-19T01:48:42.459Z,71.64
2017-03-19T01:49:42.493Z,71.64
2017-03-19T01:50:42.504Z,71.64
2017-03-19T01:51:42.554Z,71.55
2017-03-19T01:52:42.574Z,71.55
2017-03-19T01:53:42.302Z,71.73
2017-03-19T01:54:42.635Z,71.55
2017-03-19T01:55:42.363Z,71.64
2017-03-19T01:56:42.414Z,71.55
2017-03-19T01:57:42.758Z,71.55
2017-03-19T01:58:42.462Z,71.55
2017-03-19T01:59:42.509Z,71.55
2017-03-19T02:00:42.528Z,71.73
2017-03-19T02:01:42.574Z,71.64
2017-03-19T02:02:42.926Z,71.73
2017-03-19T02:03:42.934Z,71.55
2017-03-19T02:04:42.674Z,71.36
2017-03-19T02:05:42.995Z,71.36
2017-03-19T02:06:42.743Z,71.73
2017-03-19T02:07:42.771Z,71.83
2017-03-19T02:08:43.103Z,71.92
2017-03-19T02:09:43.122Z,71.55
2017-03-19T02:10:43.156Z,71.45
2017-03-19T02:11:42.888Z,71.45
2017-03-19T02:12:42.920Z,71.45
2017-03-19T02:13:43.273Z,71.55
2017-03-19T02:14:42.999Z,71.64
2017-03-19T02:15:43.016Z,71.83
2017-03-19T02:16:43.063Z,71.73
2017-03-19T02:17:43.108Z,71.73
2017-03-19T02:18:43.135Z,71.73
2017-03-19T02:19:43.164Z,71.92
2017-03-19T02:20:43.193Z,71.92
2017-03-19T02:21:43.225Z,71.64
2017-03-19T02:22:43.565Z,71.55
2017-03-19T02:23:43.606Z,71.55
2017-03-19T02:24:43.321Z,71.51
2017-03-19T02:25:43.337Z,71.55
2017-03-19T02:26:43.386Z,71.73
2017-03-19T02:27:43.712Z,71.64
2017-03-19T02:28:43.742Z,71.7
2017-03-19T02:29:43.485Z,71.73
2017-03-19T02:30:43.515Z,71.73
2017-03-19T02:31:43.548Z,71.64
2017-03-19T02:32:43.867Z,71.73
2017-03-19T02:33:43.614Z,71.64
2017-03-19T02:34:43.631Z,71.64
2017-03-19T02:35:43.965Z,71.64
2017-03-19T02:36:43.695Z,71.73
2017-03-19T02:37:44.051Z,71.73
2017-03-19T02:38:44.088Z,71.73
2017-03-19T02:39:44.113Z,71.73
2017-03-19T02:40:43.839Z,71.73
2017-03-19T02:41:43.858Z,71.7
2017-03-19T02:42:44.212Z,71.51
2017-03-19T02:43:44.225Z,71.73
2017-03-19T02:44:44.275Z,71.6
2017-03-19T02:45:43.986Z,71.8
2017-03-19T02:46:44.032Z,71.83
2017-03-19T02:47:44.061Z,71.51
2017-03-19T02:48:44.387Z,71.7
2017-03-19T02:49:44.418Z,71.51
2017-03-19T02:50:44.449Z,71.7
2017-03-19T02:51:44.502Z,71.6
2017-03-19T02:52:44.522Z,71.7
2017-03-19T02:53:44.245Z,71.7
2017-03-19T02:54:44.600Z,71.6
2017-03-19T02:55:44.314Z,71.51
2017-03-19T02:56:44.341Z,71.7
2017-03-19T02:57:44.387Z,71.7
2017-03-19T02:58:44.731Z,71.7
2017-03-19T02:59:44.451Z,71.7
2017-03-19T03:00:44.791Z,71.8
2017-03-19T03:01:44.805Z,71.7
2017-03-19T03:02:44.839Z,71.8
2017-03-19T03:03:44.873Z,72.08
2017-03-19T03:04:44.900Z,71.98
2017-03-19T03:05:44.631Z,71.8
2017-03-19T03:06:44.686Z,72.08
2017-03-19T03:07:44.695Z,72.36
2017-03-19T03:08:45.032Z,71.89
2017-03-19T03:09:44.759Z,71.89
2017-03-19T03:10:44.804Z,72.55
2017-03-19T03:11:45.126Z,72.45
2017-03-19T03:12:44.874Z,72.55
2017-03-19T03:13:45.209Z,71.89
2017-03-19T03:14:44.940Z,72.55
2017-03-19T03:15:45.255Z,71.6
2017-03-19T03:16:44.997Z,72.64
2017-03-19T03:17:45.373Z,72.17
2017-03-19T03:18:45.069Z,72.08
2017-03-19T03:19:45.082Z,72.17
2017-03-19T03:20:45.129Z,72.55
2017-03-19T03:21:45.163Z,72.59
2017-03-19T03:22:45.179Z,72.36
2017-03-19T03:23:45.549Z,72.45
2017-03-19T03:24:45.547Z,72.17
2017-03-19T03:25:45.291Z,72.4
2017-03-19T03:26:45.310Z,72.02
2017-03-19T03:27:45.661Z,72.59
2017-03-19T03:28:45.373Z,72.3
2017-03-19T03:29:45.419Z,72.59
2017-03-19T03:30:45.438Z,72.3
2017-03-19T03:31:45.478Z,72.4
2017-03-19T03:32:45.827Z,72.4
2017-03-19T03:33:45.835Z,72.4
2017-03-19T03:34:45.565Z,72.49
2017-03-19T03:35:45.904Z,72.49
2017-03-19T03:36:45.633Z,72.4
2017-03-19T03:37:45.971Z,72.49
2017-03-19T03:38:46.001Z,72.49
2017-03-19T03:39:46.049Z,72.21
2017-03-19T03:40:45.765Z,72.49
2017-03-19T03:41:45.820Z,72.3
2017-03-19T03:42:46.149Z,72.3
2017-03-19T03:43:46.183Z,72.4
2017-03-19T03:44:46.193Z,71.92
2017-03-19T03:45:46.233Z,71.83
2017-03-19T03:46:46.281Z,71.92
2017-03-19T03:47:46.314Z,71.73
2017-03-19T03:48:46.326Z,71.55
2017-03-19T03:49:46.357Z,71.73
2017-03-19T03:50:46.089Z,71.55
2017-03-19T03:51:46.426Z,71.83
2017-03-19T03:52:46.477Z,71.55
2017-03-19T03:53:46.200Z,71.73
2017-03-19T03:54:46.236Z,71.73
2017-03-19T03:55:46.255Z,71.73
2017-03-19T03:56:46.299Z,71.64
2017-03-19T03:57:46.319Z,72.11
2017-03-19T03:58:46.654Z,71.45
2017-03-19T03:59:46.385Z,71.73
2017-03-19T04:00:46.430Z,71.36
2017-03-19T04:01:46.753Z,71.64
2017-03-19T04:02:46.807Z,71.45
2017-03-19T04:03:46.834Z,71.64
2017-03-19T04:04:46.546Z,71.73
2017-03-19T04:05:46.597Z,71.55
2017-03-19T04:06:46.961Z,71.26
2017-03-19T04:07:46.947Z,71.83
2017-03-19T04:08:46.984Z,71.36
2017-03-19T04:09:46.723Z,71.36
2017-03-19T04:10:47.067Z,71.45
2017-03-19T04:11:46.790Z,71.26
2017-03-19T04:12:47.114Z,71.17
2017-03-19T04:13:46.842Z,71.26
2017-03-19T04:14:47.178Z,71.45
2017-03-19T04:15:46.904Z,71.55
2017-03-19T04:16:46.942Z,71.45
2017-03-19T04:17:46.987Z,71.55
2017-03-19T04:18:47.309Z,71.36
2017-03-19T04:19:47.050Z,70.59
2017-03-19T04:20:47.082Z,71.07
2017-03-19T04:21:47.408Z,70.78
2017-03-19T04:22:47.134Z,70.98
2017-03-19T04:23:47.490Z,70.78
2017-03-19T04:24:47.522Z,70.78
2017-03-19T04:25:47.233Z,70.78
2017-03-19T04:26:47.584Z,70.98
2017-03-19T04:27:47.619Z,70.88
2017-03-19T04:28:47.348Z,71.07
2017-03-19T04:29:47.378Z,70.69
2017-03-19T04:30:47.397Z,70.78
2017-03-19T04:31:47.731Z,70.78
2017-03-19T04:32:47.482Z,70.82
2017-03-19T04:33:47.797Z,71.07
2017-03-19T04:34:47.854Z,71.01
2017-03-19T04:35:47.575Z,71.26
2017-03-19T04:36:47.894Z,70.69
2017-03-19T04:37:47.633Z,70.5
2017-03-19T04:38:47.979Z,70.59
2017-03-19T04:39:47.692Z,70.21
2017-03-19T04:40:47.731Z,70.31
2017-03-19T04:41:47.772Z,70.5
2017-03-19T04:42:48.117Z,70.31
2017-03-19T04:43:48.147Z,70.4
2017-03-19T04:44:47.871Z,70.4
2017-03-19T04:45:47.903Z,70.5
2017-03-19T04:46:47.925Z,70.12
2017-03-19T04:47:47.955Z,70.5
2017-03-19T04:48:48.005Z,70.03
2017-03-19T04:49:48.345Z,70.03
2017-03-19T04:50:48.064Z,70.03
2017-03-19T04:51:48.102Z,70.21
2017-03-19T04:52:48.122Z,70.21
2017-03-19T04:53:48.457Z,70.5
2017-03-19T04:54:48.191Z,70.5
2017-03-19T04:55:48.232Z,70.4
2017-03-19T04:56:48.250Z,70.59
2017-03-19T04:57:48.309Z,70.69
2017-03-19T04:58:48.639Z,70.69
2017-03-19T04:59:48.346Z,71.17
2017-03-19T05:00:48.700Z,71.17
2017-03-19T05:01:48.413Z,71.17
2017-03-19T05:02:48.766Z,70.98
2017-03-19T05:03:48.784Z,71.07
2017-03-19T05:04:48.831Z,71.17
2017-03-19T05:05:48.844Z,71.07
2017-03-19T05:06:48.895Z,70.98
2017-03-19T05:07:48.911Z,71.07
2017-03-19T05:08:48.944Z,70.88
2017-03-19T05:09:48.674Z,71.36
2017-03-19T05:10:48.722Z,70.88
2017-03-19T05:11:49.055Z,71.17
2017-03-19T05:12:49.078Z,71.17
2017-03-19T05:13:49.109Z,70.88
2017-03-19T05:14:48.844Z,70.98
2017-03-19T05:15:48.872Z,70.88
2017-03-19T05:16:48.918Z,71.07
2017-03-19T05:17:48.939Z,71.36
2017-03-19T05:18:48.970Z,70.98
2017-03-19T05:19:49.003Z,71.11
2017-03-19T05:20:49.048Z,71.17
2017-03-19T05:21:49.087Z,70.98
2017-03-19T05:22:49.420Z,71.26
2017-03-19T05:23:49.454Z,71.01
2017-03-19T05:24:49.189Z,70.92
2017-03-19T05:25:49.212Z,71.3
2017-03-19T05:26:49.230Z,70.92
2017-03-19T05:27:49.583Z,71.11
2017-03-19T05:28:49.598Z,71.01
2017-03-19T05:29:49.650Z,70.92
2017-03-19T05:30:49.664Z,71.11
2017-03-19T05:31:49.395Z,70.92
2017-03-19T05:32:49.750Z,71.2
2017-03-19T05:33:49.467Z,70.92
2017-03-19T05:34:49.508Z,70.44
2017-03-19T05:35:49.826Z,70.73
2017-03-19T05:36:49.562Z,70.63
2017-03-19T05:37:49.900Z,70.54
2017-03-19T05:38:49.628Z,70.06
2017-03-19T05:39:49.671Z,70.35
2017-03-19T05:40:49.706Z,70.44
2017-03-19T05:41:50.047Z,70.54
2017-03-19T05:42:50.061Z,70.54
2017-03-19T05:43:49.807Z,70.54
2017-03-19T05:44:49.826Z,70.63
2017-03-19T05:45:49.871Z,70.25
2017-03-19T05:46:49.887Z,69.96
2017-03-19T05:47:49.941Z,70.06
2017-03-19T05:48:49.971Z,70.06
2017-03-19T05:49:50.311Z,70.63
2017-03-19T05:50:50.035Z,70.06
2017-03-19T05:51:50.068Z,70.82
2017-03-19T05:52:50.104Z,70.82
2017-03-19T05:53:50.442Z,70.63
2017-03-19T05:54:50.477Z,70.73
2017-03-19T05:55:50.202Z,70.82
2017-03-19T05:56:50.237Z,70.35
2017-03-19T05:57:50.260Z,70.44
2017-03-19T05:58:50.609Z,70.35
2017-03-19T05:59:50.625Z,69.87
2017-03-19T06:00:50.368Z,70.06
2017-03-19T06:01:50.715Z,70.06
2017-03-19T06:02:50.727Z,69.68
2017-03-19T06:03:50.779Z,69.87
2017-03-19T06:04:50.502Z,69.68
2017-03-19T06:05:50.536Z,69.87
2017-03-19T06:06:50.556Z,70
2017-03-19T06:07:50.907Z,69.71
2017-03-19T06:08:50.926Z,69.68
2017-03-19T06:09:50.977Z,69.81
2017-03-19T06:10:50.688Z,69.91
2017-03-19T06:11:50.722Z,70.1
2017-03-19T06:12:51.103Z,69.81
2017-03-19T06:13:50.791Z,69.91
2017-03-19T06:14:50.838Z,70.95
2017-03-19T06:15:50.870Z,70.23
2017-03-19T06:16:50.889Z,70.23
2017-03-19T06:17:51.244Z,70.04
2017-03-19T06:18:50.972Z,69.94
2017-03-19T06:19:51.007Z,70.13
2017-03-19T06:20:51.026Z,70.07
2017-03-19T06:21:51.073Z,69.41
2017-03-19T06:22:51.112Z,69.31
2017-03-19T06:23:51.133Z,68.59
2017-03-19T06:24:51.489Z,68.68
2017-03-19T06:25:51.200Z,68.49
2017-03-19T06:26:51.250Z,68.3
2017-03-19T06:27:51.596Z,68.49
2017-03-19T06:28:51.305Z,68.11
2017-03-19T06:29:51.352Z,67.92
2017-03-19T06:30:51.676Z,67.73
2017-03-19T06:31:51.414Z,67.63
2017-03-19T06:32:51.764Z,67.44
2017-03-19T06:33:51.479Z,67.16
2017-03-19T06:34:51.527Z,66.97
2017-03-19T06:35:51.872Z,66.97
2017-03-19T06:36:51.581Z,66.87
2017-03-19T06:37:51.965Z,66.97
2017-03-19T06:38:51.650Z,66.59
2017-03-19T06:39:52.009Z,66.68
2017-03-19T06:40:51.721Z,66.68
2017-03-19T06:41:51.758Z,66.2
2017-03-19T06:42:51.808Z,65.83
2017-03-19T06:43:51.829Z,65.35
2017-03-19T06:44:51.861Z,65.54
2017-03-19T06:45:51.910Z,64.78
2017-03-19T06:46:51.946Z,65.35
2017-03-19T06:47:52.293Z,64.87
2017-03-19T06:48:52.307Z,65.45
2017-03-19T06:49:52.055Z,65.35
2017-03-19T06:50:52.088Z,65.16
2017-03-19T06:51:52.427Z,65.16
2017-03-19T06:52:52.146Z,65.06
2017-03-19T06:53:52.193Z,65.35
2017-03-19T06:54:52.516Z,64.59
2017-03-19T06:55:52.571Z,64.69
2017-03-19T06:56:52.601Z,64.97
2017-03-19T06:57:52.626Z,64.87
2017-03-19T06:58:52.672Z,64.87
2017-03-19T06:59:52.703Z,64.31
2017-03-19T07:00:52.421Z,64.4
2017-03-19T07:01:52.760Z,64.5
2017-03-19T07:02:52.508Z,64.59
2017-03-19T07:03:52.543Z,64.21
2017-03-19T07:04:52.563Z,64.4
2017-03-19T07:05:52.612Z,65.16
2017-03-19T07:06:52.634Z,64.62
2017-03-19T07:07:52.993Z,64.15
2017-03-19T07:08:52.706Z,64.18
2017-03-19T07:09:53.048Z,63.32
2017-03-19T07:10:53.101Z,62.85
2017-03-19T07:11:53.144Z,62.97
2017-03-19T07:12:53.167Z,62.49
2017-03-19T07:13:52.901Z,62.21
2017-03-19T07:14:52.934Z,61.93
2017-03-19T07:15:53.278Z,61.73
2017-03-19T07:16:53.007Z,61.35
2017-03-19T07:17:53.029Z,60.97
2017-03-19T07:18:53.063Z,60.88
2017-03-19T07:19:53.423Z,61.07
2017-03-19T07:20:53.443Z,60.78
2017-03-19T07:21:53.186Z,60.78
2017-03-19T07:22:53.531Z,60.02
2017-03-19T07:23:53.249Z,59.83
2017-03-19T07:24:53.278Z,60.21
2017-03-19T07:25:53.332Z,60.4
2017-03-19T07:26:53.354Z,59.74
2017-03-19T07:27:53.390Z,59.54
2017-03-19T07:28:53.735Z,59.74
2017-03-19T07:29:53.787Z,60.02
2017-03-19T07:30:53.515Z,59.74
2017-03-19T07:31:53.535Z,59.83
2017-03-19T07:32:53.894Z,59.54
2017-03-19T07:33:53.607Z,59.26
2017-03-19T07:34:53.659Z,59.57
2017-03-19T07:35:53.680Z,59.19
2017-03-19T07:36:53.715Z,59.09
2017-03-19T07:37:54.111Z,58.62
2017-03-19T07:38:54.096Z,58.17
2017-03-19T07:39:54.161Z,57.89
2017-03-19T07:40:53.881Z,57.72
2017-03-19T07:41:53.917Z,57.92
2017-03-19T07:42:54.273Z,57.56
2017-03-19T07:43:53.993Z,56.99
2017-03-19T07:44:54.017Z,56.7
2017-03-19T07:45:54.054Z,56.92
2017-03-19T07:46:54.122Z,56.35
2017-03-19T07:47:54.146Z,55.8
2017-03-19T07:48:54.474Z,55.8
2017-03-19T07:49:54.529Z,55.42
2017-03-19T07:50:54.564Z,54.85
2017-03-19T07:51:54.298Z,54.56
2017-03-19T07:52:54.644Z,54.94
2017-03-19T07:53:54.374Z,54.3
2017-03-19T07:54:54.702Z,53.53
2017-03-19T07:55:54.436Z,53.53
2017-03-19T07:56:54.490Z,53.75
2017-03-19T07:57:54.835Z,53.18
2017-03-19T07:58:54.877Z,52.15
2017-03-19T07:59:54.901Z,52.06
2017-03-19T08:00:54.632Z,51.58
2017-03-19T08:01:54.670Z,51.46
2017-03-19T08:02:55.032Z,50.43
2017-03-19T08:03:55.056Z,50.12
2017-03-19T08:04:54.805Z,50.12
2017-03-19T08:05:54.842Z,50.7
2017-03-19T08:06:55.170Z,50.79
2017-03-19T08:07:54.921Z,50.41
2017-03-19T08:08:55.267Z,50.31
2017-03-19T08:09:55.309Z,48.59
2017-03-19T08:10:55.022Z,48.11
2017-03-19T08:11:55.077Z,48.88
2017-03-19T08:12:55.424Z,48.39
2017-03-19T08:13:55.155Z,48.49
2017-03-19T08:14:55.196Z,48.39
2017-03-19T08:15:55.240Z,49.04
2017-03-19T08:16:55.559Z,48.75
2017-03-19T08:17:55.313Z,48.28
2017-03-19T08:18:55.337Z,47.89
2017-03-19T08:19:55.697Z,48.47
2017-03-19T08:20:55.428Z,48.09
2017-03-19T08:21:55.454Z,48.35
2017-03-19T08:22:55.795Z,48.54
2017-03-19T08:23:55.834Z,47.97
2017-03-19T08:24:55.899Z,48.25
2017-03-19T08:25:55.623Z,48.07
2017-03-19T08:26:55.645Z,48.25
2017-03-19T08:27:55.703Z,47.49
2017-03-19T08:28:56.028Z,47.66
2017-03-19T08:29:55.764Z,47.66
2017-03-19T08:30:55.801Z,47.66
2017-03-19T08:31:55.841Z,48.04
2017-03-19T08:32:56.179Z,47.34
2017-03-19T08:33:56.225Z,48.21
2017-03-19T08:34:56.275Z,48.3
2017-03-19T08:35:55.992Z,48.21
2017-03-19T08:36:56.044Z,48.47
2017-03-19T08:37:56.085Z,48.28
2017-03-19T08:38:56.428Z,48.85
2017-03-19T08:39:56.162Z,48.37
2017-03-19T08:40:56.179Z,48.18
2017-03-19T08:41:56.217Z,48.28
2017-03-19T08:42:56.274Z,48.35
2017-03-19T08:43:56.297Z,48.63
2017-03-19T08:44:56.653Z,48.83
2017-03-19T08:45:56.372Z,49.02
2017-03-19T08:46:56.422Z,49.3
2017-03-19T08:47:56.453Z,49.02
2017-03-19T08:48:56.481Z,49.59
2017-03-19T08:49:56.825Z,49.47
2017-03-19T08:50:56.565Z,49.76
2017-03-19T08:51:56.915Z,50.13
2017-03-19T08:52:56.934Z,50.04
2017-03-19T08:53:56.969Z,50.42
2017-03-19T08:54:57.006Z,50.32
2017-03-19T08:55:56.751Z,50.42
2017-03-19T08:56:56.801Z,51.09
2017-03-19T08:57:57.117Z,51.16
2017-03-19T08:58:57.157Z,51.16
2017-03-19T08:59:57.216Z,51.35
2017-03-19T09:00:57.225Z,51.73
2017-03-19T09:01:57.267Z,52.49
2017-03-19T09:02:57.012Z,52.2
2017-03-19T09:03:57.047Z,52.11
2017-03-19T09:04:57.076Z,51.92
2017-03-19T09:05:57.109Z,52.49
2017-03-19T09:06:57.156Z,52.4
2017-03-19T09:07:57.482Z,53.25
2017-03-19T09:08:57.538Z,53.25
2017-03-19T09:09:57.253Z,52.87
2017-03-19T09:10:57.296Z,53.25
2017-03-19T09:11:57.335Z,53.52
2017-03-19T09:12:57.358Z,53.83
2017-03-19T09:13:57.395Z,53.73
2017-03-19T09:14:57.435Z,53.83
2017-03-19T09:15:57.467Z,54.39
2017-03-19T09:16:57.828Z,54.3
2017-03-19T09:17:57.844Z,54.49
2017-03-19T09:18:57.889Z,54.49
2017-03-19T09:19:57.939Z,54.39
2017-03-19T09:20:57.663Z,54.39
2017-03-19T09:21:58.011Z,55.16
2017-03-19T09:22:58.044Z,55.16
2017-03-19T09:23:58.070Z,55.44
2017-03-19T09:24:57.815Z,54.88
2017-03-19T09:25:57.844Z,55.16
2017-03-19T09:26:58.172Z,55.16
2017-03-19T09:27:58.228Z,55.35
2017-03-19T09:28:57.942Z,55.63
2017-03-19T09:29:57.993Z,55.54
2017-03-19T09:30:58.318Z,55.44
2017-03-19T09:31:58.067Z,55.73
2017-03-19T09:32:58.405Z,56.21
2017-03-19T09:33:58.432Z,56.14
2017-03-19T09:34:58.179Z,56.04
2017-03-19T09:35:58.520Z,56.33
2017-03-19T09:36:58.542Z,56.62
2017-03-19T09:37:58.593Z,56.33
2017-03-19T09:38:58.313Z,56.04
2017-03-19T09:39:58.673Z,56.24
2017-03-19T09:40:58.685Z,55.85
2017-03-19T09:41:58.726Z,55.85
2017-03-19T09:42:58.764Z,56.9
2017-03-19T09:43:58.821Z,56.81
2017-03-19T09:44:58.535Z,56.71
2017-03-19T09:45:58.588Z,56.62
2017-03-19T09:46:58.924Z,56.36
2017-03-19T09:47:58.947Z,56.55
2017-03-19T09:48:59.006Z,56.84
2017-03-19T09:49:59.045Z,56.55
2017-03-19T09:50:59.083Z,56.55
2017-03-19T09:51:59.123Z,56.74
2017-03-19T09:52:58.852Z,56.46
2017-03-19T09:53:58.874Z,56.84
2017-03-19T09:54:59.236Z,56.55
2017-03-19T09:55:59.262Z,56.55
2017-03-19T09:56:58.989Z,56.65
2017-03-19T09:57:59.043Z,56.26
2017-03-19T09:58:59.370Z,56.38
2017-03-19T09:59:59.120Z,56.1
2017-03-19T10:00:59.467Z,55.91
2017-03-19T10:01:59.196Z,56.07
2017-03-19T10:02:59.541Z,55.69
2017-03-19T10:03:59.561Z,56.26
2017-03-19T10:04:59.310Z,55.88
2017-03-19T10:05:59.347Z,56.74
2017-03-19T10:06:59.677Z,56.84
2017-03-19T10:07:59.428Z,56.74
2017-03-19T10:08:59.453Z,56.55
2017-03-19T10:09:59.788Z,56.74
2017-03-19T10:10:59.524Z,56.74
2017-03-19T10:11:59.864Z,56.52
2017-03-19T10:12:59.922Z,57.28
2017-03-19T10:13:59.958Z,56.81
2017-03-19T10:14:59.997Z,56.81
2017-03-19T10:15:59.725Z,57.38
2017-03-19T10:16:59.750Z,57.38
2017-03-19T10:18:00.106Z,57.67
2017-03-19T10:19:00.143Z,57.28
2017-03-19T10:19:59.865Z,57.19
2017-03-19T10:21:00.199Z,58.04
2017-03-19T10:22:00.259Z,57.76
2017-03-19T10:23:00.297Z,58.04
2017-03-19T10:24:00.334Z,57.86
2017-03-19T10:25:01.348Z,57.67
2017-03-19T10:26:00.101Z,58.14
2017-03-19T10:27:00.122Z,58.81
2017-03-19T10:28:00.462Z,58.24
2017-03-19T10:29:00.193Z,58.91
2017-03-19T10:30:00.251Z,59.19
2017-03-19T10:31:00.286Z,59.67
2017-03-19T10:32:00.324Z,59.28
2017-03-19T10:33:00.647Z,59.09
2017-03-19T10:34:00.398Z,59.19
2017-03-19T10:35:00.721Z,59.86
2017-03-19T10:36:00.778Z,60.05
2017-03-19T10:37:00.817Z,59.67
2017-03-19T10:38:00.527Z,59.76
2017-03-19T10:39:00.889Z,59.86
2017-03-19T10:40:00.906Z,59.76
2017-03-19T10:41:00.655Z,59.76
2017-03-19T10:42:00.677Z,59.95
2017-03-19T10:43:01.016Z,60.14
2017-03-19T10:44:00.765Z,60.14
2017-03-19T10:45:01.091Z,60.24
2017-03-19T10:46:00.857Z,60.72
2017-03-19T10:47:01.183Z,60.62
2017-03-19T10:48:01.229Z,60.52
2017-03-19T10:49:00.937Z,61.29
2017-03-19T10:50:00.990Z,61.19
2017-03-19T10:51:01.004Z,60.91
2017-03-19T10:52:01.058Z,61.19
2017-03-19T10:53:01.098Z,61.57
2017-03-19T10:54:01.116Z,61.19
2017-03-19T10:55:01.478Z,61.48
2017-03-19T10:56:01.191Z,61.57
2017-03-19T10:57:01.227Z,61.76
2017-03-19T10:58:01.280Z,61.76
2017-03-19T10:59:01.626Z,61.76
2017-03-19T11:00:01.668Z,62.05
2017-03-19T11:01:01.698Z,62.05
2017-03-19T11:02:01.411Z,61.96
2017-03-19T11:03:01.467Z,62.43
2017-03-19T11:04:01.787Z,62.49
2017-03-19T11:05:01.851Z,62.3
2017-03-19T11:06:01.863Z,62.49
2017-03-19T11:07:01.901Z,63.54
2017-03-19T11:08:01.936Z,63.35
2017-03-19T11:09:01.992Z,63.45
2017-03-19T11:10:02.007Z,63.45
2017-03-19T11:11:01.740Z,63.45
2017-03-19T11:12:02.081Z,63.35
2017-03-19T11:13:02.117Z,64.12
2017-03-19T11:14:01.869Z,64.21
2017-03-19T11:15:02.209Z,64.4
2017-03-19T11:16:01.920Z,64.69
2017-03-19T11:17:01.958Z,65.36
2017-03-19T11:18:02.318Z,65.45
2017-03-19T11:19:02.339Z,66.02
2017-03-19T11:20:02.389Z,66.11
2017-03-19T11:21:02.133Z,66.59
2017-03-19T11:22:02.138Z,66.31
2017-03-19T11:23:02.483Z,65.83
2017-03-19T11:24:02.231Z,66.21
2017-03-19T11:25:02.271Z,66.69
2017-03-19T11:26:02.299Z,66.97
2017-03-19T11:27:02.318Z,66.69
2017-03-19T11:28:02.376Z,67.64
2017-03-19T11:29:02.715Z,67.16
2017-03-19T11:30:02.801Z,67.16
2017-03-19T11:31:02.789Z,67.35
2017-03-19T11:32:02.519Z,67.26
2017-03-19T11:33:02.536Z,67.07
2017-03-19T11:34:02.571Z,67.93
2017-03-19T11:35:02.931Z,67.83
2017-03-19T11:36:02.664Z,67.93
2017-03-19T11:37:02.683Z,67.93
2017-03-19T11:38:03.029Z,68.02
2017-03-19T11:39:02.773Z,68.21
2017-03-19T11:40:02.809Z,68.02
2017-03-19T11:41:02.845Z,67.83
2017-03-19T11:42:02.863Z,68.08
2017-03-19T11:43:02.917Z,68.88
2017-03-19T11:44:02.932Z,68.59
2017-03-19T11:45:02.992Z,68.78
2017-03-19T11:46:03.027Z,68.84
2017-03-19T11:47:03.044Z,68.75
2017-03-19T11:48:03.380Z,69.7
2017-03-19T11:49:03.116Z,69.79
2017-03-19T11:50:03.171Z,70.27
2017-03-19T11:51:03.191Z,70.18
2017-03-19T11:52:03.223Z,70.27
2017-03-19T11:53:03.261Z,70.94
2017-03-19T11:54:03.298Z,71.03
2017-03-19T11:55:03.634Z,71.03
2017-03-19T11:56:03.385Z,71.42
2017-03-19T11:57:03.423Z,71.32
2017-03-19T11:58:03.772Z,71.22
2017-03-19T11:59:03.775Z,71.51
2017-03-19T12:00:03.835Z,71.8
2017-03-19T12:01:03.871Z,71.98
2017-03-19T12:02:03.583Z,72.71
2017-03-19T12:03:03.634Z,73
2017-03-19T12:04:03.978Z,72.81
2017-03-19T12:05:04.017Z,73.38
2017-03-19T12:06:03.733Z,72.81
2017-03-19T12:07:04.062Z,73.28
2017-03-19T12:08:03.815Z,73.47
2017-03-19T12:09:03.851Z,73.57
2017-03-19T12:10:04.196Z,73.85
2017-03-19T12:11:04.228Z,74.52
2017-03-19T12:12:03.939Z,74.04
2017-03-19T12:13:04.278Z,74.14
2017-03-19T12:14:04.026Z,74.71
2017-03-19T12:15:04.374Z,74.9
2017-03-19T12:16:04.388Z,76.61
2017-03-19T12:17:04.135Z,76.14
2017-03-19T12:18:04.479Z,75.95
2017-03-19T12:19:04.187Z,75.76
2017-03-19T12:20:04.234Z,76.23
2017-03-19T12:21:04.277Z,76.71
2017-03-19T12:22:04.313Z,76.61
2017-03-19T12:23:04.654Z,77.19
2017-03-19T12:24:04.369Z,76.81
2017-03-19T12:25:04.417Z,77.19
2017-03-19T12:26:04.453Z,77.28
2017-03-19T12:27:04.482Z,77.76
2017-03-19T12:28:04.810Z,77.47
2017-03-19T12:29:04.869Z,78.61
2017-03-19T12:30:04.577Z,79.05
2017-03-19T12:31:04.629Z,79.09
2017-03-19T12:32:04.972Z,78.57
2017-03-19T12:33:04.990Z,79.05
2017-03-19T12:34:05.029Z,79.05
2017-03-19T12:35:05.079Z,79.24
2017-03-19T12:36:04.787Z,78.77
2017-03-19T12:37:05.146Z,78.96
2017-03-19T12:38:04.858Z,79.05
2017-03-19T12:39:05.219Z,79.05
2017-03-19T12:40:04.945Z,79.43
2017-03-19T12:41:04.982Z,79.24
2017-03-19T12:42:05.014Z,79.24
2017-03-19T12:43:05.338Z,79.62
2017-03-19T12:44:05.394Z,79.81
2017-03-19T12:45:05.122Z,80.29
2017-03-19T12:46:05.155Z,80.38
2017-03-19T12:47:05.177Z,80.29
2017-03-19T12:48:05.510Z,80.38
2017-03-19T12:49:05.549Z,81.43
2017-03-19T12:50:05.297Z,81.14
2017-03-19T12:51:05.316Z,81.14
2017-03-19T12:52:05.652Z,81.14
2017-03-19T12:53:05.383Z,80.66
2017-03-19T12:54:05.749Z,81.24
2017-03-19T12:55:05.452Z,81.81
2017-03-19T12:56:05.507Z,82